Janice E. Strait — WDG4317 — position and weather

sailwx.info

Track history (hours):
 
Tides and Currents Weather Stations Pressure Air Temp Water Temp Dewpoint Dewpoint Depression Visibility Wind Speed Wind Dir Waves Ship Positions

Janice E. Strait

Owner: Western Rivers Boat Management, Inc., paducah, KY. More information available from US FCC via Universal Licensing System and Coast Guard Vessel Documentation Center.

Last reported at 2018-Jun-19 17:36 UTC. Time now 2018-Jun-25 13:45 UTC.
Position N 32°40' W 091°07'.

Length 66 m; draft 3 m.

Type: Towing. MMSI: 367535280.

Date/timePositionNaut miles runAvg speedWind from/ knotsBaromVisibWave heightAir tempDewpointWater temp
2018-Jun-19 17:36N 32°40' W 091°07'1 4.7
2018-Jun-19 17:29N 32°40' W 091°07'2 2.1
2018-Jun-19 16:19N 32°38' W 091°09'2 5.2
2018-Jun-19 16:00N 32°37' W 091°09'2 4.8
2018-Jun-19 15:30N 32°35' W 091°07'2 4.4
2018-Jun-19 15:00N 32°33' W 091°06'3 5.4
2018-Jun-19 14:30N 32°30' W 091°07'2 5.0
2018-Jun-19 14:00N 32°28' W 091°06'2 5.0
2018-Jun-19 13:30N 32°26' W 091°03'3 5.0
2018-Jun-19 12:59N 32°26' W 091°01'2 4.2
2018-Jun-19 12:30N 32°24' W 090°60'2 4.9
2018-Jun-19 12:00N 32°21' W 090°60'2 4.9
2018-Jun-19 11:30N 32°21' W 090°57'2 4.8
2018-Jun-19 11:00N 32°20' W 090°54'2 4.1
2018-Jun-19 10:30N 32°18' W 090°55'0 0.3
2018-Jun-19 10:00N 32°18' W 090°55'0 0.1
2018-Jun-19 09:30N 32°18' W 090°55'0 0.2
2018-Jun-19 09:00N 32°18' W 090°55'0 0.0
2018-Jun-19 08:30N 32°18' W 090°55'0 0.0
2018-Jun-19 08:00N 32°18' W 090°55'0 0.0
2018-Jun-19 07:30N 32°18' W 090°55'0 0.0
2018-Jun-19 07:00N 32°18' W 090°55'0 0.0
2018-Jun-19 06:27N 32°18' W 090°55'0 0.0
2018-Jun-19 06:00N 32°18' W 090°55'0 0.0
2018-Jun-19 05:30N 32°18' W 090°55'0 0.0
2018-Jun-19 05:00N 32°18' W 090°55'0 0.0
2018-Jun-19 04:30N 32°18' W 090°55'1 2.6
2018-Jun-19 04:00N 32°17' W 090°56'2 4.6
2018-Jun-19 03:30N 32°16' W 090°58'2 4.9
2018-Jun-19 03:00N 32°13' W 090°59'2 4.9
2018-Jun-19 02:30N 32°11' W 090°60'2 4.7
2018-Jun-19 02:00N 32°09' W 091°00'2 4.2
2018-Jun-19 01:25N 32°07' W 091°03'3 5.2
2018-Jun-19 00:52N 32°08' W 091°06'1 4.1
2018-Jun-19 00:30N 32°07' W 091°06'4 4.3
2018-Jun-18 23:38N 32°04' W 091°04'1 4.5
2018-Jun-18 23:30N 32°03' W 091°04'  
2018-Jun-10 06:33N 31°57' W 091°12'0 8.6
2018-Jun-10 06:30N 31°57' W 091°11'5 7.0
2018-Jun-10 05:51N 31°59' W 091°06'3 7.6
2018-Jun-10 05:30N 32°01' W 091°04'3 7.0
2018-Jun-10 05:00N 32°05' W 091°04'4 7.2
2018-Jun-10 04:30N 32°08' W 091°06'4 7.6
2018-Jun-10 04:00N 32°07' W 091°02'4 7.2
2018-Jun-10 03:30N 32°10' W 091°00'4 7.8
2018-Jun-10 03:00N 32°14' W 090°59'4 7.8
2018-Jun-10 02:30N 32°17' W 090°56'3 6.8
2018-Jun-10 02:00N 32°20' W 090°54'3 6.8
2018-Jun-10 01:30N 32°21' W 090°58'3 5.7
2018-Jun-10 01:00N 32°24' W 090°59'3 6.8
2018-Jun-10 00:30N 32°26' W 091°02'4 8.0
2018-Jun-10 00:00N 32°28' W 091°06'5 7.7
2018-Jun-09 23:23N 32°33' W 091°06'  
Track history (hours):
 
Tides and Currents Weather Stations Pressure Air Temp Water Temp Dewpoint Dewpoint Depression Visibility Wind Speed Wind Dir Waves Ship Positions

Janice E. Strait

Owner: Western Rivers Boat Management, Inc., paducah, KY. More information available from US FCC via Universal Licensing System and Coast Guard Vessel Documentation Center.

Last reported at 2018-Jun-19 17:36 UTC. Time now 2018-Jun-25 13:45 UTC.
Position N 32°40' W 091°07'.

Length 66 m; draft 3 m.

Type: Towing. MMSI: 367535280.

Date/timePositionNaut miles runAvg speedWind from/ knotsBaromVisibWave heightAir tempDewpointWater temp
2018-Jun-19 17:36N 32°40' W 091°07'1 4.7
2018-Jun-19 17:29N 32°40' W 091°07'2 2.1
2018-Jun-19 16:19N 32°38' W 091°09'2 5.2
2018-Jun-19 16:00N 32°37' W 091°09'2 4.8
2018-Jun-19 15:30N 32°35' W 091°07'2 4.4
2018-Jun-19 15:00N 32°33' W 091°06'3 5.4
2018-Jun-19 14:30N 32°30' W 091°07'2 5.0
2018-Jun-19 14:00N 32°28' W 091°06'2 5.0
2018-Jun-19 13:30N 32°26' W 091°03'3 5.0
2018-Jun-19 12:59N 32°26' W 091°01'2 4.2
2018-Jun-19 12:30N 32°24' W 090°60'2 4.9
2018-Jun-19 12:00N 32°21' W 090°60'2 4.9
2018-Jun-19 11:30N 32°21' W 090°57'2 4.8
2018-Jun-19 11:00N 32°20' W 090°54'2 4.1
2018-Jun-19 10:30N 32°18' W 090°55'0 0.3
2018-Jun-19 10:00N 32°18' W 090°55'0 0.1
2018-Jun-19 09:30N 32°18' W 090°55'0 0.2
2018-Jun-19 09:00N 32°18' W 090°55'0 0.0
2018-Jun-19 08:30N 32°18' W 090°55'0 0.0
2018-Jun-19 08:00N 32°18' W 090°55'0 0.0
2018-Jun-19 07:30N 32°18' W 090°55'0 0.0
2018-Jun-19 07:00N 32°18' W 090°55'0 0.0
2018-Jun-19 06:27N 32°18' W 090°55'0 0.0
2018-Jun-19 06:00N 32°18' W 090°55'0 0.0
2018-Jun-19 05:30N 32°18' W 090°55'0 0.0
2018-Jun-19 05:00N 32°18' W 090°55'0 0.0
2018-Jun-19 04:30N 32°18' W 090°55'1 2.6
2018-Jun-19 04:00N 32°17' W 090°56'2 4.6
2018-Jun-19 03:30N 32°16' W 090°58'2 4.9
2018-Jun-19 03:00N 32°13' W 090°59'2 4.9
2018-Jun-19 02:30N 32°11' W 090°60'2 4.7
2018-Jun-19 02:00N 32°09' W 091°00'2 4.2
2018-Jun-19 01:25N 32°07' W 091°03'3 5.2
2018-Jun-19 00:52N 32°08' W 091°06'1 4.1
2018-Jun-19 00:30N 32°07' W 091°06'4 4.3
2018-Jun-18 23:38N 32°04' W 091°04'1 4.5
2018-Jun-18 23:30N 32°03' W 091°04'  
2018-Jun-10 06:33N 31°57' W 091°12'0 8.6
2018-Jun-10 06:30N 31°57' W 091°11'5 7.0
2018-Jun-10 05:51N 31°59' W 091°06'3 7.6
2018-Jun-10 05:30N 32°01' W 091°04'3 7.0
2018-Jun-10 05:00N 32°05' W 091°04'4 7.2
2018-Jun-10 04:30N 32°08' W 091°06'4 7.6
2018-Jun-10 04:00N 32°07' W 091°02'4 7.2
2018-Jun-10 03:30N 32°10' W 091°00'4 7.8
2018-Jun-10 03:00N 32°14' W 090°59'4 7.8
2018-Jun-10 02:30N 32°17' W 090°56'3 6.8
2018-Jun-10 02:00N 32°20' W 090°54'3 6.8
2018-Jun-10 01:30N 32°21' W 090°58'3 5.7
2018-Jun-10 01:00N 32°24' W 090°59'3 6.8
2018-Jun-10 00:30N 32°26' W 091°02'4 8.0
2018-Jun-10 00:00N 32°28' W 091°06'5 7.7
2018-Jun-09 23:23N 32°33' W 091°06'  

Dump ship's entire track history